createdAt,value
2018-07-26T00:01:27.113Z,99.90
2018-07-26T00:03:55.590Z,99.90
2018-07-26T00:06:24.607Z,99.90
2018-07-26T00:08:53.096Z,99.90
2018-07-26T00:11:21.930Z,99.90
2018-07-26T00:13:50.442Z,99.90
2018-07-26T00:16:18.933Z,99.90
2018-07-26T00:18:47.452Z,99.90
2018-07-26T00:21:16.274Z,99.90
2018-07-26T00:23:45.090Z,99.90
2018-07-26T00:26:13.911Z,99.90
2018-07-26T00:28:42.406Z,99.90
2018-07-26T00:31:10.893Z,99.90
2018-07-26T00:33:40.050Z,99.90
2018-07-26T00:36:08.521Z,99.90
2018-07-26T00:38:37.367Z,99.90
2018-07-26T00:41:05.909Z,99.90
2018-07-26T00:43:34.404Z,99.90
2018-07-26T00:46:02.870Z,99.90
2018-07-26T00:48:31.684Z,99.90
2018-07-26T00:51:00.893Z,99.90
2018-07-26T00:53:29.382Z,99.90
2018-07-26T00:55:57.877Z,99.90
2018-07-26T00:58:26.396Z,99.90
2018-07-26T01:00:55.538Z,99.90
2018-07-26T01:03:24.331Z,99.90
2018-07-26T01:05:53.198Z,99.90
2018-07-26T01:08:21.693Z,99.90
2018-07-26T01:10:50.206Z,99.90
2018-07-26T01:13:18.736Z,99.90
2018-07-26T01:15:47.585Z,99.90
2018-07-26T01:18:16.428Z,99.90
2018-07-26T01:20:44.897Z,99.90
2018-07-26T01:23:13.761Z,99.90
2018-07-26T01:25:42.586Z,99.90
2018-07-26T01:28:11.107Z,99.90
2018-07-26T01:30:39.589Z,99.90
2018-07-26T01:33:08.414Z,99.90
2018-07-26T01:35:36.921Z,99.90
2018-07-26T01:38:05.815Z,99.90
2018-07-26T01:40:34.303Z,99.90
2018-07-26T01:43:14.309Z,99.90
2018-07-26T01:45:42.939Z,99.90
2018-07-26T01:48:11.438Z,99.90
2018-07-26T01:50:39.927Z,99.90
2018-07-26T01:53:08.785Z,99.90
2018-07-26T01:55:37.268Z,99.90
2018-07-26T01:58:05.759Z,99.90
2018-07-26T02:00:34.941Z,99.90
2018-07-26T02:03:03.421Z,99.90
2018-07-26T02:05:32.264Z,99.90
2018-07-26T02:08:00.770Z,99.90
2018-07-26T02:10:29.240Z,99.90
2018-07-26T02:12:58.068Z,99.90
2018-07-26T02:15:27.132Z,99.90
2018-07-26T02:17:56.278Z,99.90
2018-07-26T02:20:25.122Z,99.90
2018-07-26T02:22:53.959Z,99.90
2018-07-26T02:25:22.821Z,99.90
2018-07-26T02:27:51.485Z,99.90
2018-07-26T02:30:19.994Z,99.90
2018-07-26T02:32:48.477Z,99.90
2018-07-26T02:35:17.348Z,99.90
2018-07-26T02:37:46.194Z,99.90
2018-07-26T02:40:15.363Z,99.90
2018-07-26T02:42:44.050Z,99.90
2018-07-26T02:45:12.871Z,99.90
2018-07-26T02:47:41.722Z,99.90
2018-07-26T02:50:10.877Z,99.90
2018-07-26T02:52:40.245Z,99.90
2018-07-26T02:55:08.762Z,99.90
2018-07-26T02:57:37.242Z,99.90
2018-07-26T03:00:07.002Z,99.90
2018-07-26T03:02:36.183Z,99.90
2018-07-26T03:05:05.926Z,99.90
2018-07-26T03:07:34.781Z,99.90
2018-07-26T03:10:03.669Z,99.90
2018-07-26T03:12:32.189Z,99.90
2018-07-26T03:15:01.032Z,99.90
2018-07-26T03:17:29.547Z,99.90
2018-07-26T03:19:58.386Z,99.90
2018-07-26T03:22:27.237Z,99.90
2018-07-26T03:24:56.057Z,99.90
2018-07-26T03:27:24.922Z,99.90
2018-07-26T03:29:54.094Z,99.90
2018-07-26T03:32:23.021Z,99.90
2018-07-26T03:34:52.304Z,99.90
2018-07-26T03:37:21.741Z,99.90
2018-07-26T03:39:50.246Z,99.90
2018-07-26T03:42:18.726Z,99.90
2018-07-26T03:44:47.547Z,99.90
2018-07-26T03:47:16.716Z,99.90
2018-07-26T03:49:45.231Z,99.90
2018-07-26T03:52:14.061Z,99.90
2018-07-26T03:54:43.226Z,99.90
2018-07-26T03:57:12.445Z,99.90
2018-07-26T03:59:41.274Z,99.90
2018-07-26T04:02:10.234Z,99.90
2018-07-26T04:04:39.092Z,99.90
2018-07-26T04:07:07.607Z,99.90
2018-07-26T04:09:36.432Z,99.90
2018-07-26T04:15:36.487Z,99.90
2018-07-26T04:18:06.395Z,99.90
2018-07-26T04:20:35.599Z,99.90
2018-07-26T04:23:04.401Z,99.90
2018-07-26T04:25:33.327Z,99.90
2018-07-26T04:28:02.783Z,99.90
2018-07-26T04:30:31.943Z,99.90
2018-07-26T04:33:00.437Z,99.90
2018-07-26T04:35:29.285Z,99.90
2018-07-26T04:37:58.110Z,99.90
2018-07-26T04:40:26.913Z,99.90
2018-07-26T04:42:55.494Z,99.90
2018-07-26T04:45:24.449Z,99.90
2018-07-26T04:47:52.934Z,99.90
2018-07-26T04:50:21.429Z,99.90
2018-07-26T04:52:49.945Z,99.90
2018-07-26T04:55:18.622Z,99.90
2018-07-26T04:57:48.269Z,99.90
2018-07-26T05:00:17.117Z,99.90
2018-07-26T05:02:45.965Z,99.90
2018-07-26T05:05:15.581Z,99.90
2018-07-26T05:07:44.079Z,99.90
2018-07-26T05:10:13.229Z,99.90
2018-07-26T05:12:42.045Z,99.90
2018-07-26T05:15:10.896Z,99.90
2018-07-26T05:17:39.575Z,99.90
2018-07-26T05:20:08.581Z,99.90
2018-07-26T05:22:38.462Z,99.90
2018-07-26T05:25:07.317Z,99.90
2018-07-26T05:27:36.342Z,99.90
2018-07-26T05:30:05.462Z,99.90
2018-07-26T05:32:34.767Z,99.90
2018-07-26T05:35:03.253Z,99.90
2018-07-26T05:37:32.142Z,99.90
2018-07-26T05:40:01.345Z,99.90
2018-07-26T05:42:30.505Z,99.90
2018-07-26T05:44:59.044Z,99.90
2018-07-26T05:47:27.528Z,99.90
2018-07-26T05:49:56.046Z,99.90
2018-07-26T05:52:24.551Z,99.90
2018-07-26T05:54:53.561Z,99.90
2018-07-26T05:57:22.397Z,99.90
2018-07-26T05:59:51.775Z,99.90
2018-07-26T06:02:20.621Z,99.90
2018-07-26T06:04:49.514Z,99.90
2018-07-26T06:07:18.373Z,99.90
2018-07-26T06:09:47.019Z,99.90
2018-07-26T06:12:16.819Z,99.90
2018-07-26T06:14:45.894Z,99.90
2018-07-26T06:17:15.608Z,99.90
2018-07-26T06:19:45.556Z,99.90
2018-07-26T06:22:14.028Z,99.90
2018-07-26T06:27:13.257Z,99.90
2018-07-26T06:29:42.291Z,99.90
2018-07-26T06:32:11.213Z,99.90
2018-07-26T06:34:40.118Z,99.90
2018-07-26T06:37:09.301Z,99.90
2018-07-26T06:39:37.859Z,99.90
2018-07-26T06:42:07.156Z,99.90
2018-07-26T06:44:35.644Z,99.90
2018-07-26T06:47:04.149Z,99.90
2018-07-26T06:49:32.825Z,99.90
2018-07-26T06:52:01.337Z,99.90
2018-07-26T06:54:31.489Z,99.90
2018-07-26T06:57:00.608Z,99.90
2018-07-26T06:59:29.992Z,99.90
2018-07-26T07:01:58.817Z,99.90
2018-07-26T07:04:27.654Z,99.90
2018-07-26T07:06:56.478Z,99.90
2018-07-26T07:09:25.656Z,99.90
2018-07-26T07:11:54.488Z,99.90
2018-07-26T07:14:23.327Z,99.90
2018-07-26T07:16:52.046Z,99.90
2018-07-26T07:19:20.647Z,99.90
2018-07-26T07:21:49.194Z,99.90
2018-07-26T07:24:21.777Z,99.90
2018-07-26T07:26:51.887Z,99.90
2018-07-26T07:29:21.141Z,99.90
2018-07-26T07:31:49.529Z,99.90
2018-07-26T07:34:18.009Z,99.90
2018-07-26T07:36:46.892Z,99.90
2018-07-26T07:41:43.302Z,99.90
2018-07-26T07:44:11.697Z,99.90
2018-07-26T07:46:40.429Z,99.90
2018-07-26T09:17:07.139Z,99.90
2018-07-26T09:19:35.944Z,88.50
2018-07-26T09:22:04.770Z,87.80
2018-07-26T09:24:33.414Z,87.70
2018-07-26T09:27:01.862Z,88.50
2018-07-26T09:29:30.761Z,88.80
2018-07-26T09:31:59.870Z,87.60
2018-07-26T09:34:28.094Z,85.50
2018-07-26T09:36:56.956Z,85.80
2018-07-26T09:39:25.508Z,84.40
2018-07-26T09:41:54.094Z,84.80
2018-07-26T09:44:22.666Z,83.20
2018-07-26T09:46:51.221Z,81.50
2018-07-26T09:49:19.788Z,80.60
2018-07-26T09:51:48.357Z,79.50
2018-07-26T09:54:17.284Z,79.40
2018-07-26T09:56:46.221Z,79.50
2018-07-26T09:59:14.828Z,78.50
2018-07-26T10:01:43.089Z,77.60
2018-07-26T10:04:11.691Z,77.30
2018-07-26T10:06:39.912Z,76.80
2018-07-26T10:09:11.213Z,76.80
2018-07-26T10:11:39.760Z,76.20
2018-07-26T10:14:07.989Z,74.90
2018-07-26T10:16:36.371Z,74.00
2018-07-26T10:19:05.224Z,71.90
2018-07-26T10:21:33.777Z,69.30
2018-07-26T10:26:30.337Z,67.60
2018-07-26T10:28:59.256Z,67.20
2018-07-26T10:32:51.717Z,65.70
2018-07-26T10:35:20.273Z,65.90
2018-07-26T10:37:48.482Z,66.00
2018-07-26T10:40:16.702Z,65.40
2018-07-26T10:42:45.848Z,64.40
2018-07-26T10:45:14.389Z,64.00
2018-07-26T10:50:11.528Z,63.10
2018-07-26T10:52:40.315Z,63.20
2018-07-26T10:55:15.231Z,61.40
2018-07-26T10:57:56.198Z,62.90
2018-07-26T11:00:24.442Z,62.70
2018-07-26T11:02:54.035Z,62.90
2018-07-26T11:05:22.230Z,60.40
2018-07-26T11:07:51.408Z,60.20
2018-07-26T11:13:24.777Z,59.30
2018-07-26T11:15:57.175Z,58.20
2018-07-26T11:18:25.960Z,58.30
2018-07-26T11:24:05.383Z,56.20
2018-07-26T11:26:34.853Z,56.00
2018-07-26T11:29:13.561Z,55.90
2018-07-26T11:31:44.628Z,55.50
2018-07-26T11:34:16.211Z,54.80
2018-07-26T11:36:44.456Z,53.70
2018-07-26T11:39:21.375Z,52.30
2018-07-26T11:42:45.215Z,52.30
2018-07-26T11:45:13.793Z,53.00
2018-07-26T11:47:41.999Z,51.40
2018-07-26T11:50:11.810Z,52.00
2018-07-26T11:52:40.623Z,51.10
2018-07-26T11:55:09.345Z,48.10
2018-07-26T11:57:37.586Z,47.70
2018-07-26T12:00:06.533Z,48.80
2018-07-26T12:02:34.757Z,48.40
2018-07-26T12:05:04.278Z,45.80
2018-07-26T12:07:32.839Z,45.90
2018-07-26T12:10:02.264Z,46.90
2018-07-26T12:12:30.477Z,46.90
2018-07-26T12:14:59.390Z,47.00
2018-07-26T12:17:28.273Z,46.80
2018-07-26T12:19:56.848Z,47.30
2018-07-26T12:24:54.085Z,45.90
2018-07-26T12:27:22.303Z,45.40
2018-07-26T12:29:50.711Z,45.60
2018-07-26T12:32:18.929Z,46.10
2018-07-26T12:34:47.488Z,46.50
2018-07-26T12:37:15.716Z,47.40
2018-07-26T12:39:44.257Z,49.40
2018-07-26T12:42:12.757Z,50.30
2018-07-26T12:44:41.631Z,50.80
2018-07-26T12:47:10.037Z,51.10
2018-07-26T12:49:39.468Z,51.20
2018-07-26T12:52:07.685Z,51.80
2018-07-26T12:54:36.655Z,51.90
2018-07-26T12:57:04.873Z,52.00
2018-07-26T12:59:33.110Z,52.10
2018-07-26T13:02:01.663Z,53.00
2018-07-26T13:04:29.916Z,53.80
2018-07-26T13:06:58.570Z,55.00
2018-07-26T13:09:29.451Z,55.80
2018-07-26T13:11:57.665Z,56.20
2018-07-26T13:14:26.218Z,56.80
2018-07-26T13:16:54.952Z,56.50
2018-07-26T13:19:23.491Z,55.20
2018-07-26T13:21:52.071Z,54.60
2018-07-26T13:24:20.310Z,54.40
2018-07-26T13:26:48.898Z,54.20
2018-07-26T13:29:17.113Z,53.90
2018-07-26T13:31:46.268Z,53.00
2018-07-26T13:34:16.701Z,51.40
2018-07-26T13:36:44.948Z,50.50
2018-07-26T13:39:14.372Z,51.40
2018-07-26T13:41:43.465Z,50.10
2018-07-26T13:44:12.806Z,49.80
2018-07-26T13:46:41.014Z,49.80
2018-07-26T13:49:09.274Z,50.70
2018-07-26T13:51:37.892Z,51.80
2018-07-26T13:54:06.605Z,52.40
2018-07-26T13:56:34.825Z,52.80
2018-07-26T13:59:04.048Z,52.20
2018-07-26T14:01:40.579Z,50.80
2018-07-26T14:04:10.569Z,50.00
2018-07-26T14:06:39.617Z,50.70
2018-07-26T14:09:10.618Z,50.10
2018-07-26T14:11:40.457Z,48.80
2018-07-26T14:14:10.473Z,47.70
2018-07-26T14:16:38.775Z,45.80
2018-07-26T14:19:08.587Z,45.90
2018-07-26T14:21:41.746Z,45.60
2018-07-26T14:24:16.554Z,45.00
2018-07-26T14:26:47.027Z,45.60
2018-07-26T14:29:19.308Z,45.70
2018-07-26T14:31:51.479Z,45.50
2018-07-26T14:34:22.597Z,44.80
2018-07-26T14:36:52.205Z,42.80
2018-07-26T14:39:21.007Z,42.70
2018-07-26T14:41:51.787Z,42.40
2018-07-26T14:44:23.350Z,42.30
2018-07-26T14:46:52.857Z,42.30
2018-07-26T14:49:23.694Z,42.70
2018-07-26T14:51:52.900Z,42.20
2018-07-26T14:54:25.276Z,41.90
2018-07-26T14:56:55.802Z,42.20
2018-07-26T14:59:28.622Z,41.00
2018-07-26T15:04:34.158Z,41.30
2018-07-26T15:07:04.549Z,41.70
2018-07-26T15:09:33.401Z,41.30
2018-07-26T15:12:02.070Z,41.40
2018-07-26T15:14:30.285Z,42.40
2018-07-26T15:16:58.849Z,42.30
2018-07-26T15:19:27.434Z,42.30
2018-07-26T15:21:56.728Z,42.80
2018-07-26T15:24:25.313Z,42.80
2018-07-26T15:26:53.757Z,42.80
2018-07-26T15:29:22.581Z,42.50
2018-07-26T15:31:51.749Z,42.00
2018-07-26T15:34:20.325Z,42.10
2018-07-26T15:36:49.579Z,41.30
2018-07-26T15:39:18.162Z,42.40
2018-07-26T15:41:46.743Z,42.10
2018-07-26T15:44:16.257Z,42.10
2018-07-26T15:46:44.770Z,41.60
2018-07-26T15:49:13.357Z,41.30
2018-07-26T15:51:42.284Z,41.80
2018-07-26T15:54:10.843Z,42.20
2018-07-26T15:56:40.157Z,42.20
2018-07-26T15:59:08.870Z,42.30
2018-07-26T16:01:37.917Z,41.90
2018-07-26T16:04:06.177Z,41.70
2018-07-26T16:06:34.758Z,41.90
2018-07-26T16:09:04.794Z,41.50
2018-07-26T16:11:33.247Z,41.70
2018-07-26T16:14:01.597Z,41.60
2018-07-26T16:16:33.162Z,41.60
2018-07-26T16:19:02.022Z,42.10
2018-07-26T16:21:30.999Z,42.20
2018-07-26T16:23:59.243Z,42.10
2018-07-26T16:26:27.483Z,42.70
2018-07-26T16:28:56.944Z,43.00
2018-07-26T16:31:25.347Z,42.70
2018-07-26T16:33:53.966Z,43.10
2018-07-26T16:36:23.738Z,43.30
2018-07-26T16:38:53.521Z,43.40
2018-07-26T16:41:21.766Z,43.50
2018-07-26T16:43:50.102Z,43.60
2018-07-26T16:46:19.226Z,43.40
2018-07-26T16:48:48.493Z,43.30
2018-07-26T16:51:16.749Z,43.00
2018-07-26T16:53:47.445Z,43.30
2018-07-26T16:56:16.030Z,43.10
2018-07-26T16:58:44.320Z,43.00
2018-07-26T17:06:40.380Z,43.40
2018-07-26T17:09:10.897Z,43.80
2018-07-26T17:11:39.239Z,44.10
2018-07-26T17:14:07.799Z,44.40
2018-07-26T17:16:36.692Z,44.50
2018-07-26T17:19:05.310Z,44.70
2018-07-26T17:21:33.674Z,44.60
2018-07-26T17:24:02.237Z,44.60
2018-07-26T17:26:31.640Z,44.80
2018-07-26T17:29:00.555Z,45.10
2018-07-26T17:31:29.246Z,45.30
2018-07-26T17:33:57.787Z,45.30
2018-07-26T17:36:26.346Z,45.40
2018-07-26T17:38:54.886Z,45.40
2018-07-26T17:41:23.093Z,45.60
2018-07-26T17:43:51.404Z,45.70
2018-07-26T17:46:19.840Z,45.70
2018-07-26T17:48:48.057Z,46.00
2018-07-26T17:51:16.704Z,46.20
2018-07-26T17:53:45.697Z,46.30
2018-07-26T17:56:14.265Z,46.60
2018-07-26T17:58:43.134Z,46.70
2018-07-26T18:03:41.895Z,47.30
2018-07-26T18:06:11.092Z,47.40
2018-07-26T18:08:40.137Z,47.80
2018-07-26T18:11:08.410Z,48.10
2018-07-26T18:16:05.064Z,48.30
2018-07-26T18:18:34.024Z,48.80
2018-07-26T18:21:02.908Z,49.30
2018-07-26T18:23:31.837Z,49.50
2018-07-26T18:26:00.438Z,50.00
2018-07-26T18:28:29.001Z,50.20
2018-07-26T18:30:57.557Z,50.10
2018-07-26T18:33:26.126Z,50.00
2018-07-26T18:35:54.367Z,50.00
2018-07-26T18:38:22.960Z,49.90
2018-07-26T18:40:51.373Z,49.90
2018-07-26T18:43:19.594Z,49.90
2018-07-26T18:45:48.349Z,50.10
2018-07-26T18:48:16.916Z,50.80
2018-07-26T18:50:45.469Z,50.40
2018-07-26T18:53:14.364Z,50.50
2018-07-26T18:55:42.597Z,50.80
2018-07-26T18:58:11.496Z,51.00
2018-07-26T19:00:40.399Z,51.30
2018-07-26T19:03:08.979Z,51.40
2018-07-26T19:05:37.218Z,51.80
2018-07-26T19:08:06.409Z,52.10
2018-07-26T19:10:35.065Z,52.20
2018-07-26T19:13:03.622Z,52.40
2018-07-26T19:15:34.121Z,52.50
2018-07-26T19:18:07.002Z,52.70
2018-07-26T19:20:36.954Z,52.50
2018-07-26T19:23:05.184Z,52.70
2018-07-26T19:25:34.088Z,53.20
2018-07-26T19:28:03.132Z,53.30
2018-07-26T19:30:34.746Z,53.50
2018-07-26T19:33:12.176Z,54.00
2018-07-26T19:35:44.115Z,54.00
2018-07-26T19:38:15.433Z,54.20
2018-07-26T19:40:45.213Z,54.40
2018-07-26T19:43:13.454Z,54.80
2018-07-26T19:45:44.432Z,55.10
2018-07-26T19:48:13.579Z,55.50
2018-07-26T19:50:42.160Z,56.00
2018-07-26T19:53:15.444Z,56.00
2018-07-26T19:55:44.068Z,56.40
2018-07-26T19:58:16.278Z,56.40
2018-07-26T20:00:44.844Z,56.70
2018-07-26T20:03:13.394Z,57.00
2018-07-26T20:05:41.687Z,57.30
2018-07-26T20:08:10.184Z,57.70
2018-07-26T20:10:38.754Z,58.10
2018-07-26T20:13:07.290Z,58.50
2018-07-26T20:15:36.201Z,58.60
2018-07-26T20:18:06.197Z,58.90
2018-07-26T20:20:36.289Z,59.10
2018-07-26T20:23:04.546Z,59.40
2018-07-26T20:25:32.772Z,59.40
2018-07-26T20:28:02.203Z,59.70
2018-07-26T20:30:30.630Z,60.00
2018-07-26T20:32:59.568Z,60.30
2018-07-26T20:35:28.470Z,60.50
2018-07-26T20:37:56.719Z,60.70
2018-07-26T20:40:25.309Z,60.90
2018-07-26T20:42:53.537Z,61.00
2018-07-26T20:45:22.121Z,61.30
2018-07-26T20:47:50.366Z,61.70
2018-07-26T20:50:19.589Z,61.90
2018-07-26T20:52:48.288Z,62.20
2018-07-26T20:55:16.568Z,62.30
2018-07-26T20:57:44.914Z,62.60
2018-07-26T21:00:14.421Z,63.00
2018-07-26T21:02:43.517Z,63.50
2018-07-26T21:05:12.032Z,63.90
2018-07-26T21:07:40.762Z,64.50
2018-07-26T21:10:09.769Z,64.50
2018-07-26T21:12:38.368Z,64.60
2018-07-26T21:15:08.672Z,64.80
2018-07-26T21:17:36.988Z,64.90
2018-07-26T21:20:06.018Z,65.10
2018-07-26T21:22:34.417Z,65.40
2018-07-26T21:25:02.635Z,65.60
2018-07-26T21:27:30.881Z,65.80
2018-07-26T21:29:59.115Z,65.90
2018-07-26T21:32:27.342Z,66.00
2018-07-26T21:34:55.922Z,66.30
2018-07-26T21:37:24.509Z,66.60
2018-07-26T21:39:53.300Z,66.70
2018-07-26T21:42:21.861Z,67.00
2018-07-26T21:44:50.105Z,67.30
2018-07-26T21:47:18.337Z,67.50
2018-07-26T21:49:46.880Z,67.40
2018-07-26T21:52:15.135Z,67.70
2018-07-26T21:54:43.366Z,68.00
2018-07-26T21:57:11.950Z,68.50
2018-07-26T21:59:40.815Z,68.80
2018-07-26T22:02:10.532Z,69.10
2018-07-26T22:04:38.950Z,69.40
2018-07-26T22:07:09.533Z,70.40
2018-07-26T22:09:38.122Z,69.70
2018-07-26T22:12:06.698Z,70.10
2018-07-26T22:14:35.254Z,70.40
2018-07-26T22:17:03.484Z,70.60
2018-07-26T22:19:33.014Z,71.00
2018-07-26T22:22:01.683Z,71.40
2018-07-26T22:24:30.385Z,71.30
2018-07-26T22:26:58.891Z,72.10
2018-07-26T22:29:27.477Z,72.50
2018-07-26T22:31:56.058Z,72.80
2018-07-26T22:34:55.094Z,73.10
2018-07-26T22:37:23.337Z,73.50
2018-07-26T22:39:52.449Z,73.60
2018-07-26T22:42:20.667Z,74.00
2018-07-26T22:44:48.942Z,74.30
2018-07-26T22:47:17.179Z,74.60
2018-07-26T22:49:45.429Z,74.90
2018-07-26T22:52:14.000Z,75.30
2018-07-26T22:54:42.744Z,75.60
2018-07-26T22:57:11.347Z,75.90
2018-07-26T22:59:39.949Z,76.20
2018-07-26T23:02:08.737Z,76.80
2018-07-26T23:04:37.559Z,77.00
2018-07-26T23:07:06.601Z,77.50
2018-07-26T23:09:35.144Z,77.60
2018-07-26T23:12:04.029Z,77.50
2018-07-26T23:14:32.593Z,77.70
2018-07-26T23:17:01.156Z,77.90
2018-07-26T23:19:29.514Z,78.20
2018-07-26T23:21:57.886Z,78.70
2018-07-26T23:24:26.125Z,79.10
2018-07-26T23:26:54.698Z,79.40
2018-07-26T23:29:22.913Z,79.60
2018-07-26T23:31:51.501Z,79.70
2018-07-26T23:34:19.728Z,80.10
2018-07-26T23:36:48.617Z,80.30
2018-07-26T23:39:17.217Z,80.40
2018-07-26T23:41:45.434Z,80.50
2018-07-26T23:44:14.329Z,80.90
2018-07-26T23:46:42.552Z,80.90
2018-07-26T23:49:10.777Z,81.20
2018-07-26T23:51:39.014Z,81.00
2018-07-26T23:54:07.593Z,81.40
2018-07-26T23:56:36.182Z,81.60
2018-07-26T23:59:04.774Z,81.90
